sensor_id;sensor_type;location;lat;lon;timestamp;pressure;altitude;pressure_sealevel;temperature;humidity
68654;BME280;55636;51.108;13.622;2023-05-19T00:00:51;101261.16;;;11.99;42.58
68654;BME280;55636;51.108;13.622;2023-05-19T00:01:55;101262.22;;;11.98;42.56
68654;BME280;55636;51.108;13.622;2023-05-19T00:02:57;101263.31;;;11.97;42.46
68654;BME280;55636;51.108;13.622;2023-05-19T00:04:02;101263.31;;;11.97;42.64
68654;BME280;55636;51.108;13.622;2023-05-19T00:05:08;101258.03;;;11.95;42.39
68654;BME280;55636;51.108;13.622;2023-05-19T00:06:11;101264.66;;;11.94;42.59
68654;BME280;55636;51.108;13.622;2023-05-19T00:07:17;101259.38;;;11.93;42.72
68654;BME280;55636;51.108;13.622;2023-05-19T00:08:22;101260.44;;;11.92;42.66
68654;BME280;55636;51.108;13.622;2023-05-19T00:09:25;101257.09;;;11.90;42.46
68654;BME280;55636;51.108;13.622;2023-05-19T00:10:28;101255.41;;;11.89;42.32
68654;BME280;55636;51.108;13.622;2023-05-19T00:11:34;101256.50;;;11.88;42.28
68654;BME280;55636;51.108;13.622;2023-05-19T00:12:37;101261.22;;;11.87;42.41
68654;BME280;55636;51.108;13.622;2023-05-19T00:13:41;101262.28;;;11.86;42.30
68654;BME280;55636;51.108;13.622;2023-05-19T00:14:46;101257.84;;;11.85;42.33
68654;BME280;55636;51.108;13.622;2023-05-19T00:15:49;101259.78;;;11.84;42.42
68654;BME280;55636;51.108;13.622;2023-05-19T00:16:52;101255.06;;;11.85;42.35
68654;BME280;55636;51.108;13.622;2023-05-19T00:17:57;101260.59;;;11.85;42.22
68654;BME280;55636;51.108;13.622;2023-05-19T00:19:01;101260.59;;;11.85;42.29
68654;BME280;55636;51.108;13.622;2023-05-19T00:20:04;101258.91;;;11.84;42.33
68654;BME280;55636;51.108;13.622;2023-05-19T00:21:08;101254.25;;;11.84;42.32
68654;BME280;55636;51.108;13.622;2023-05-19T00:22:10;101255.56;;;11.82;42.28
68654;BME280;55636;51.108;13.622;2023-05-19T00:23:13;101257.47;;;11.81;42.31
68654;BME280;55636;51.108;13.622;2023-05-19T00:24:15;101251.94;;;11.81;42.21
68654;BME280;55636;51.108;13.622;2023-05-19T00:25:17;101251.13;;;11.81;42.32
68654;BME280;55636;51.108;13.622;2023-05-19T00:26:20;101247.50;;;11.80;42.40
68654;BME280;55636;51.108;13.622;2023-05-19T00:27:35;101239.19;;;11.80;42.19
68654;BME280;55636;51.108;13.622;2023-05-19T00:28:38;101246.66;;;11.80;42.26
68654;BME280;55636;51.108;13.622;2023-05-19T00:29:44;101244.16;;;11.78;42.12
68654;BME280;55636;51.108;13.622;2023-05-19T00:30:46;101243.06;;;11.79;42.36
68654;BME280;55636;51.108;13.622;2023-05-19T00:31:49;101243.06;;;11.79;42.16
68654;BME280;55636;51.108;13.622;2023-05-19T00:32:52;101244.16;;;11.78;42.41
68654;BME280;55636;51.108;13.622;2023-05-19T00:33:55;101247.75;;;11.79;42.33
68654;BME280;55636;51.108;13.622;2023-05-19T00:34:58;101246.91;;;11.78;42.24
68654;BME280;55636;51.108;13.622;2023-05-19T00:36:01;101237.75;;;11.78;42.20
68654;BME280;55636;51.108;13.622;2023-05-19T00:37:04;101245.22;;;11.77;42.33
68654;BME280;55636;51.108;13.622;2023-05-19T00:38:07;101248.25;;;11.76;42.22
68654;BME280;55636;51.108;13.622;2023-05-19T00:39:09;101241.03;;;11.75;42.01
68654;BME280;55636;51.108;13.622;2023-05-19T00:40:12;101237.44;;;11.74;42.21
68654;BME280;55636;51.108;13.622;2023-05-19T00:41:15;101248.50;;;11.74;42.41
68654;BME280;55636;51.108;13.622;2023-05-19T00:42:19;101244.03;;;11.73;42.51
68654;BME280;55636;51.108;13.622;2023-05-19T00:43:22;101250.41;;;11.74;42.81
68654;BME280;55636;51.108;13.622;2023-05-19T00:44:24;101255.13;;;11.73;42.60
68654;BME280;55636;51.108;13.622;2023-05-19T00:45:26;101244.28;;;11.72;42.62
68654;BME280;55636;51.108;13.622;2023-05-19T00:46:29;101248.16;;;11.71;42.58
68654;BME280;55636;51.108;13.622;2023-05-19T00:47:32;101243.69;;;11.69;42.71
68654;BME280;55636;51.108;13.622;2023-05-19T00:48:34;101251.16;;;11.69;42.67
68654;BME280;55636;51.108;13.622;2023-05-19T00:49:36;101242.00;;;11.68;42.75
68654;BME280;55636;51.108;13.622;2023-05-19T00:50:39;101245.03;;;11.67;42.74
68654;BME280;55636;51.108;13.622;2023-05-19T00:51:42;101250.56;;;11.67;43.11
68654;BME280;55636;51.108;13.622;2023-05-19T00:52:44;101247.22;;;11.65;42.95
68654;BME280;55636;51.108;13.622;2023-05-19T00:53:47;101253.84;;;11.64;43.09
68654;BME280;55636;51.108;13.622;2023-05-19T00:54:54;101252.16;;;11.63;43.13
68654;BME280;55636;51.108;13.622;2023-05-19T00:56:00;101244.34;;;11.60;43.37
68654;BME280;55636;51.108;13.622;2023-05-19T00:57:03;101241.56;;;11.60;43.25
68654;BME280;55636;51.108;13.622;2023-05-19T00:58:08;101245.69;;;11.57;43.58
68654;BME280;55636;51.108;13.622;2023-05-19T00:59:11;101244.81;;;11.57;43.60
68654;BME280;55636;51.108;13.622;2023-05-19T01:00:15;101240.63;;;11.54;43.62
68654;BME280;55636;51.108;13.622;2023-05-19T01:01:19;101248.09;;;11.54;43.82
68654;BME280;55636;51.108;13.622;2023-05-19T01:02:23;101240.88;;;11.52;44.12
68654;BME280;55636;51.108;13.622;2023-05-19T01:03:26;101241.13;;;11.51;44.01
68654;BME280;55636;51.108;13.622;2023-05-19T01:04:33;101242.19;;;11.50;44.20
68654;BME280;55636;51.108;13.622;2023-05-19T01:05:40;101241.63;;;11.48;44.20
68654;BME280;55636;51.108;13.622;2023-05-19T01:06:43;101237.16;;;11.47;44.57
68654;BME280;55636;51.108;13.622;2023-05-19T01:07:46;101234.66;;;11.45;44.65
68654;BME280;55636;51.108;13.622;2023-05-19T01:08:53;101238.72;;;11.43;44.65
68654;BME280;55636;51.108;13.622;2023-05-19T01:09:56;101235.09;;;11.42;44.76
68654;BME280;55636;51.108;13.622;2023-05-19T01:10:59;101236.41;;;11.40;45.17
68654;BME280;55636;51.108;13.622;2023-05-19T01:12:02;101235.59;;;11.39;45.19
68654;BME280;55636;51.108;13.622;2023-05-19T01:13:05;101233.91;;;11.38;45.13
68654;BME280;55636;51.108;13.622;2023-05-19T01:14:08;101237.75;;;11.37;45.21
68654;BME280;55636;51.108;13.622;2023-05-19T01:15:12;101239.06;;;11.34;45.37
68654;BME280;55636;51.108;13.622;2023-05-19T01:17:54;101238.72;;;11.31;45.17
68654;BME280;55636;51.108;13.622;2023-05-19T01:19:18;101235.38;;;11.29;45.12
68654;BME280;55636;51.108;13.622;2023-05-19T01:20:50;101233.94;;;11.26;44.83
68654;BME280;55636;51.108;13.622;2023-05-19T01:22:18;101236.94;;;11.25;44.87
68654;BME280;55636;51.108;13.622;2023-05-19T01:23:33;101229.13;;;11.22;45.03
68654;BME280;55636;51.108;13.622;2023-05-19T01:25:01;101235.97;;;11.19;44.78
68654;BME280;55636;51.108;13.622;2023-05-19T01:26:15;101234.53;;;11.16;45.12
68654;BME280;55636;51.108;13.622;2023-05-19T01:27:50;101231.19;;;11.14;45.42
68654;BME280;55636;51.108;13.622;2023-05-19T01:31:25;101232.41;;;11.07;45.94
68654;BME280;55636;51.108;13.622;2023-05-19T01:32:29;101239.25;;;11.04;45.91
68654;BME280;55636;51.108;13.622;2023-05-19T01:33:33;101241.41;;;11.02;46.13
68654;BME280;55636;51.108;13.622;2023-05-19T01:34:40;101241.66;;;11.00;46.14
68654;BME280;55636;51.108;13.622;2023-05-19T01:35:44;101239.16;;;10.99;46.12
68654;BME280;55636;51.108;13.622;2023-05-19T01:36:47;101246.81;;;10.97;46.39
68654;BME280;55636;51.108;13.622;2023-05-19T01:37:55;101244.56;;;10.94;46.34
68654;BME280;55636;51.108;13.622;2023-05-19T01:38:58;101239.28;;;10.92;46.30
68654;BME280;55636;51.108;13.622;2023-05-19T01:40:01;101244.19;;;10.90;46.41
68654;BME280;55636;51.108;13.622;2023-05-19T01:41:05;101248.03;;;10.89;46.59
68654;BME280;55636;51.108;13.622;2023-05-19T01:42:09;101238.31;;;10.86;46.66
68654;BME280;55636;51.108;13.622;2023-05-19T01:43:18;101242.38;;;10.84;46.53
68654;BME280;55636;51.108;13.622;2023-05-19T01:44:20;101242.63;;;10.82;46.64
68654;BME280;55636;51.108;13.622;2023-05-19T01:45:25;101243.72;;;10.81;46.72
68654;BME280;55636;51.108;13.622;2023-05-19T01:46:28;101249.47;;;10.80;46.91
68654;BME280;55636;51.108;13.622;2023-05-19T01:47:34;101243.38;;;10.78;46.74
68654;BME280;55636;51.108;13.622;2023-05-19T01:48:41;101245.28;;;10.77;47.03
68654;BME280;55636;51.108;13.622;2023-05-19T01:49:44;101242.19;;;10.74;47.03
68654;BME280;55636;51.108;13.622;2023-05-19T01:50:46;101245.16;;;10.72;47.08
68654;BME280;55636;51.108;13.622;2023-05-19T01:51:49;101250.09;;;10.70;47.43
68654;BME280;55636;51.108;13.622;2023-05-19T01:52:52;101242.88;;;10.69;47.45
68654;BME280;55636;51.108;13.622;2023-05-19T01:53:54;101238.69;;;10.66;47.48
68654;BME280;55636;51.108;13.622;2023-05-19T01:54:57;101240.81;;;10.64;47.53
68654;BME280;55636;51.108;13.622;2023-05-19T01:56:01;101239.16;;;10.63;47.64
68654;BME280;55636;51.108;13.622;2023-05-19T01:57:21;101239.63;;;10.60;47.43
68654;BME280;55636;51.108;13.622;2023-05-19T01:59:51;101236.53;;;10.57;47.97
68654;BME280;55636;51.108;13.622;2023-05-19T02:01:10;101240.59;;;10.54;47.70
68654;BME280;55636;51.108;13.622;2023-05-19T02:05:08;101233.50;;;10.46;48.21
68654;BME280;55636;51.108;13.622;2023-05-19T02:06:17;101233.97;;;10.43;48.40
68654;BME280;55636;51.108;13.622;2023-05-19T02:07:34;101238.91;;;10.41;48.37
68654;BME280;55636;51.108;13.622;2023-05-19T02:08:45;101239.97;;;10.40;48.49
68654;BME280;55636;51.108;13.622;2023-05-19T02:10:04;101234.91;;;10.37;48.42
68654;BME280;55636;51.108;13.622;2023-05-19T02:12:23;101239.22;;;10.33;48.81
68654;BME280;55636;51.108;13.622;2023-05-19T02:13:30;101235.88;;;10.31;48.98
68654;BME280;55636;51.108;13.622;2023-05-19T02:14:42;101235.28;;;10.29;49.00
68654;BME280;55636;51.108;13.622;2023-05-19T02:15:48;101237.44;;;10.27;49.12
68654;BME280;55636;51.108;13.622;2023-05-19T02:16:56;101238.50;;;10.26;49.10
68654;BME280;55636;51.108;13.622;2023-05-19T02:17:59;101243.41;;;10.24;49.08
68654;BME280;55636;51.108;13.622;2023-05-19T02:19:05;101235.63;;;10.20;49.28
68654;BME280;55636;51.108;13.622;2023-05-19T02:20:09;101237.53;;;10.20;49.27
68654;BME280;55636;51.108;13.622;2023-05-19T02:21:12;101231.41;;;10.18;49.36
68654;BME280;55636;51.108;13.622;2023-05-19T02:22:15;101243.53;;;10.17;49.22
68654;BME280;55636;51.108;13.622;2023-05-19T02:23:18;101234.59;;;10.15;49.13
68654;BME280;55636;51.108;13.622;2023-05-19T02:24:20;101241.22;;;10.14;49.20
68654;BME280;55636;51.108;13.622;2023-05-19T02:25:24;101235.91;;;10.12;49.25
68654;BME280;55636;51.108;13.622;2023-05-19T02:26:26;101235.31;;;10.10;49.12
68654;BME280;55636;51.108;13.622;2023-05-19T02:27:29;101232.81;;;10.09;49.19
68654;BME280;55636;51.108;13.622;2023-05-19T02:28:32;101228.34;;;10.08;49.18
68654;BME280;55636;51.108;13.622;2023-05-19T02:29:34;101236.03;;;10.06;48.98
68654;BME280;55636;51.108;13.622;2023-05-19T02:30:37;101227.16;;;10.03;48.91
68654;BME280;55636;51.108;13.622;2023-05-19T02:31:39;101235.44;;;10.03;48.98
68654;BME280;55636;51.108;13.622;2023-05-19T02:32:43;101231.22;;;10.01;49.04
68654;BME280;55636;51.108;13.622;2023-05-19T02:33:48;101232.28;;;10.00;48.74
68654;BME280;55636;51.108;13.622;2023-05-19T02:34:50;101239.94;;;9.98;48.95
68654;BME280;55636;51.108;13.622;2023-05-19T02:35:54;101241.06;;;9.97;48.75
68654;BME280;55636;51.108;13.622;2023-05-19T02:36:57;101236.84;;;9.94;48.72
68654;BME280;55636;51.108;13.622;2023-05-19T02:38:00;101235.41;;;9.92;48.64
68654;BME280;55636;51.108;13.622;2023-05-19T02:39:03;101240.91;;;9.92;48.73
68654;BME280;55636;51.108;13.622;2023-05-19T02:40:06;101241.97;;;9.91;48.71
68654;BME280;55636;51.108;13.622;2023-05-19T02:41:09;101238.59;;;9.88;48.79
68654;BME280;55636;51.108;13.622;2023-05-19T02:42:11;101233.31;;;9.87;48.79
68654;BME280;55636;51.108;13.622;2023-05-19T02:43:16;101239.91;;;9.86;48.66
68654;BME280;55636;51.108;13.622;2023-05-19T02:44:18;101240.16;;;9.84;48.83
68654;BME280;55636;51.108;13.622;2023-05-19T02:45:21;101241.22;;;9.83;48.75
68654;BME280;55636;51.108;13.622;2023-05-19T02:46:24;101239.56;;;9.82;48.71
68654;BME280;55636;51.108;13.622;2023-05-19T02:47:26;101239.78;;;9.81;48.85
68654;BME280;55636;51.108;13.622;2023-05-19T02:48:28;101235.34;;;9.80;48.91
68654;BME280;55636;51.108;13.622;2023-05-19T02:49:31;101237.50;;;9.78;48.81
68654;BME280;55636;51.108;13.622;2023-05-19T02:50:37;101233.03;;;9.77;48.95
68654;BME280;55636;51.108;13.622;2023-05-19T02:51:39;101244.31;;;9.75;49.02
68654;BME280;55636;51.108;13.622;2023-05-19T02:52:41;101235.22;;;9.75;49.13
68654;BME280;55636;51.108;13.622;2023-05-19T02:53:44;101234.59;;;9.73;49.06
68654;BME280;55636;51.108;13.622;2023-05-19T02:54:47;101233.75;;;9.72;49.09
68654;BME280;55636;51.108;13.622;2023-05-19T02:55:49;101237.59;;;9.71;49.12
68654;BME280;55636;51.108;13.622;2023-05-19T02:56:52;101233.97;;;9.70;49.07
68654;BME280;55636;51.108;13.622;2023-05-19T02:57:54;101233.38;;;9.68;49.24
68654;BME280;55636;51.108;13.622;2023-05-19T02:58:57;101235.28;;;9.68;49.24
68654;BME280;55636;51.108;13.622;2023-05-19T02:59:59;101235.53;;;9.66;49.36
68654;BME280;55636;51.108;13.622;2023-05-19T03:01:02;101233.84;;;9.65;49.45
68654;BME280;55636;51.108;13.622;2023-05-19T03:02:04;101238.50;;;9.65;49.70
68654;BME280;55636;51.108;13.622;2023-05-19T03:03:06;101234.06;;;9.64;49.56
68654;BME280;55636;51.108;13.622;2023-05-19T03:04:11;101234.31;;;9.62;49.90
68654;BME280;55636;51.108;13.622;2023-05-19T03:05:15;101235.38;;;9.61;49.76
68654;BME280;55636;51.108;13.622;2023-05-19T03:06:17;101233.72;;;9.60;49.78
68654;BME280;55636;51.108;13.622;2023-05-19T03:07:19;101230.09;;;9.60;49.88
68654;BME280;55636;51.108;13.622;2023-05-19T03:08:27;101229.50;;;9.58;49.96
68654;BME280;55636;51.108;13.622;2023-05-19T03:09:29;101226.75;;;9.58;49.98
68654;BME280;55636;51.108;13.622;2023-05-19T03:10:32;101225.06;;;9.57;50.03
68654;BME280;55636;51.108;13.622;2023-05-19T03:11:35;101214.84;;;9.57;50.24
68654;BME280;55636;51.108;13.622;2023-05-19T03:12:37;101217.03;;;9.55;50.23
68654;BME280;55636;51.108;13.622;2023-05-19T03:13:40;101209.81;;;9.54;50.24
68654;BME280;55636;51.108;13.622;2023-05-19T03:14:42;101211.72;;;9.53;50.29
68654;BME280;55636;51.108;13.622;2023-05-19T03:15:45;101210.06;;;9.52;50.31
68654;BME280;55636;51.108;13.622;2023-05-19T03:16:48;101206.44;;;9.52;50.16
68654;BME280;55636;51.108;13.622;2023-05-19T03:17:50;101209.44;;;9.50;50.48
68654;BME280;55636;51.108;13.622;2023-05-19T03:18:53;101211.56;;;9.48;50.39
68654;BME280;55636;51.108;13.622;2023-05-19T03:19:56;101216.25;;;9.48;50.34
68654;BME280;55636;51.108;13.622;2023-05-19T03:20:59;101216.25;;;9.48;50.30
68654;BME280;55636;51.108;13.622;2023-05-19T03:22:02;101219.25;;;9.46;50.49
68654;BME280;55636;51.108;13.622;2023-05-19T03:23:05;101219.25;;;9.46;50.50
68654;BME280;55636;51.108;13.622;2023-05-19T03:24:08;101220.56;;;9.44;50.68
68654;BME280;55636;51.108;13.622;2023-05-19T03:25:10;101224.38;;;9.43;50.56
68654;BME280;55636;51.108;13.622;2023-05-19T03:26:12;101228.19;;;9.42;50.61
68654;BME280;55636;51.108;13.622;2023-05-19T03:27:15;101224.84;;;9.40;50.76
68654;BME280;55636;51.108;13.622;2023-05-19T03:28:18;101227.63;;;9.40;50.98
68654;BME280;55636;51.108;13.622;2023-05-19T03:29:20;101231.44;;;9.38;51.04
68654;BME280;55636;51.108;13.622;2023-05-19T03:30:24;101228.69;;;9.38;51.17
68654;BME280;55636;51.108;13.622;2023-05-19T03:31:37;101234.66;;;9.35;51.21
68654;BME280;55636;51.108;13.622;2023-05-19T03:32:40;101232.97;;;9.34;51.32
68654;BME280;55636;51.108;13.622;2023-05-19T03:33:42;101238.50;;;9.34;51.41
68654;BME280;55636;51.108;13.622;2023-05-19T03:34:45;101237.03;;;9.32;51.37
68654;BME280;55636;51.108;13.622;2023-05-19T03:35:48;101230.66;;;9.31;51.60
68654;BME280;55636;51.108;13.622;2023-05-19T03:36:51;101240.03;;;9.30;51.72
68654;BME280;55636;51.108;13.622;2023-05-19T03:37:54;101234.72;;;9.29;51.70
68654;BME280;55636;51.108;13.622;2023-05-19T03:38:57;101233.88;;;9.28;51.86
68654;BME280;55636;51.108;13.622;2023-05-19T03:40:00;101241.53;;;9.26;52.11
68654;BME280;55636;51.108;13.622;2023-05-19T03:41:03;101227.75;;;9.26;51.94
68654;BME280;55636;51.108;13.622;2023-05-19T03:42:06;101234.38;;;9.25;52.03
68654;BME280;55636;51.108;13.622;2023-05-19T03:43:09;101229.69;;;9.26;52.15
68654;BME280;55636;51.108;13.622;2023-05-19T03:44:18;101234.56;;;9.24;52.12
68654;BME280;55636;51.108;13.622;2023-05-19T03:45:21;101230.97;;;9.23;52.13
68654;BME280;55636;51.108;13.622;2023-05-19T03:46:25;101231.22;;;9.21;52.39
68654;BME280;55636;51.108;13.622;2023-05-19T03:47:57;101241.38;;;9.21;52.39
68654;BME280;55636;51.108;13.622;2023-05-19T03:49:18;101246.31;;;9.19;52.28
68654;BME280;55636;51.108;13.622;2023-05-19T03:50:39;101232.75;;;9.17;52.20
68654;BME280;55636;51.108;13.622;2023-05-19T03:51:49;101230.25;;;9.16;52.34
68654;BME280;55636;51.108;13.622;2023-05-19T03:52:59;101235.75;;;9.16;52.43
68654;BME280;55636;51.108;13.622;2023-05-19T03:54:04;101238.72;;;9.14;52.23
68654;BME280;55636;51.108;13.622;2023-05-19T03:55:07;101232.38;;;9.14;52.40
68654;BME280;55636;51.108;13.622;2023-05-19T03:56:09;101227.91;;;9.13;52.53
68654;BME280;55636;51.108;13.622;2023-05-19T03:57:15;101237.88;;;9.14;52.56
68654;BME280;55636;51.108;13.622;2023-05-19T03:58:17;101238.34;;;9.11;52.57
68654;BME280;55636;51.108;13.622;2023-05-19T03:59:20;101241.94;;;9.11;52.55
68654;BME280;55636;51.108;13.622;2023-05-19T04:00:22;101237.25;;;9.12;52.66
68654;BME280;55636;51.108;13.622;2023-05-19T04:01:25;101243.63;;;9.12;52.46
68654;BME280;55636;51.108;13.622;2023-05-19T04:02:27;101237.50;;;9.10;52.40
68654;BME280;55636;51.108;13.622;2023-05-19T04:03:30;101244.94;;;9.10;52.46
68654;BME280;55636;51.108;13.622;2023-05-19T04:04:33;101247.69;;;9.10;52.23
68654;BME280;55636;51.108;13.622;2023-05-19T04:05:36;101239.66;;;9.08;52.39
68654;BME280;55636;51.108;13.622;2023-05-19T04:06:39;101241.53;;;9.08;52.28
68654;BME280;55636;51.108;13.622;2023-05-19T04:07:41;101248.97;;;9.07;52.34
68654;BME280;55636;51.108;13.622;2023-05-19T04:08:46;101241.78;;;9.06;52.29
68654;BME280;55636;51.108;13.622;2023-05-19T04:09:49;101246.22;;;9.07;52.41
68654;BME280;55636;51.108;13.622;2023-05-19T04:10:51;101237.09;;;9.07;52.50
68654;BME280;55636;51.108;13.622;2023-05-19T04:11:55;101250.03;;;9.06;52.44
68654;BME280;55636;51.108;13.622;2023-05-19T04:12:58;101241.78;;;9.06;52.52
68654;BME280;55636;51.108;13.622;2023-05-19T04:14:00;101243.72;;;9.06;52.54
68654;BME280;55636;51.108;13.622;2023-05-19T04:15:03;101240.94;;;9.06;52.38
68654;BME280;55636;51.108;13.622;2023-05-19T04:16:07;101246.22;;;9.07;52.46
68654;BME280;55636;51.108;13.622;2023-05-19T04:17:09;101243.47;;;9.07;52.62
68654;BME280;55636;51.108;13.622;2023-05-19T04:18:12;101242.59;;;9.07;52.52
68654;BME280;55636;51.108;13.622;2023-05-19T04:19:14;101237.97;;;9.07;52.61
68654;BME280;55636;51.108;13.622;2023-05-19T04:20:18;101243.47;;;9.07;52.92
68654;BME280;55636;51.108;13.622;2023-05-19T04:21:21;101244.31;;;9.08;52.88
68654;BME280;55636;51.108;13.622;2023-05-19T04:22:23;101239.66;;;9.08;52.86
68654;BME280;55636;51.108;13.622;2023-05-19T04:23:26;101239.66;;;9.08;52.81
68654;BME280;55636;51.108;13.622;2023-05-19T04:24:29;101242.16;;;9.10;52.62
68654;BME280;55636;51.108;13.622;2023-05-19T04:25:32;101244.06;;;9.09;52.50
68654;BME280;55636;51.108;13.622;2023-05-19T04:26:39;101245.53;;;9.12;52.51
68654;BME280;55636;51.108;13.622;2023-05-19T04:27:47;101236.19;;;9.13;52.28
68654;BME280;55636;51.108;13.622;2023-05-19T04:28:50;101242.56;;;9.13;52.57
68654;BME280;55636;51.108;13.622;2023-05-19T04:29:53;101248.66;;;9.15;52.41
68654;BME280;55636;51.108;13.622;2023-05-19T04:30:56;101253.13;;;9.16;52.42
68654;BME280;55636;51.108;13.622;2023-05-19T04:31:59;101251.19;;;9.17;52.52
68654;BME280;55636;51.108;13.622;2023-05-19T04:33:02;101244.38;;;9.19;52.48
68654;BME280;55636;51.108;13.622;2023-05-19T04:34:06;101254.56;;;9.19;52.36
68654;BME280;55636;51.108;13.622;2023-05-19T04:35:11;101249.66;;;9.21;52.30
68654;BME280;55636;51.108;13.622;2023-05-19T04:36:14;101247.75;;;9.21;52.28
68654;BME280;55636;51.108;13.622;2023-05-19T04:37:19;101250.91;;;9.25;52.15
68654;BME280;55636;51.108;13.622;2023-05-19T04:38:22;101247.28;;;9.25;52.11
68654;BME280;55636;51.108;13.622;2023-05-19T04:39:25;101245.16;;;9.27;52.26
68654;BME280;55636;51.108;13.622;2023-05-19T04:40:28;101247.69;;;9.28;52.42
68654;BME280;55636;51.108;13.622;2023-05-19T04:41:32;101261.22;;;9.30;52.29
68654;BME280;55636;51.108;13.622;2023-05-19T04:42:38;101251.06;;;9.30;52.37
68654;BME280;55636;51.108;13.622;2023-05-19T04:43:44;101246.13;;;9.32;52.18
68654;BME280;55636;51.108;13.622;2023-05-19T04:44:47;101247.59;;;9.35;52.17
68654;BME280;55636;51.108;13.622;2023-05-19T04:45:54;101243.78;;;9.36;52.09
68654;BME280;55636;51.108;13.622;2023-05-19T04:46:56;101244.41;;;9.38;52.00
68654;BME280;55636;51.108;13.622;2023-05-19T04:47:59;101247.16;;;9.38;51.91
68654;BME280;55636;51.108;13.622;2023-05-19T04:49:03;101242.22;;;9.40;51.71
68654;BME280;55636;51.108;13.622;2023-05-19T04:50:05;101240.09;;;9.42;51.67
68654;BME280;55636;51.108;13.622;2023-05-19T04:51:08;101247.28;;;9.43;51.54
68654;BME280;55636;51.108;13.622;2023-05-19T04:52:11;101240.44;;;9.46;51.51
68654;BME280;55636;51.108;13.622;2023-05-19T04:53:16;101236.84;;;9.45;51.56
68654;BME280;55636;51.108;13.622;2023-05-19T04:54:19;101236.38;;;9.48;51.73
68654;BME280;55636;51.108;13.622;2023-05-19T04:55:21;101239.75;;;9.50;51.67
68654;BME280;55636;51.108;13.622;2023-05-19T04:56:24;101239.53;;;9.52;51.53
68654;BME280;55636;51.108;13.622;2023-05-19T04:57:28;101238.69;;;9.51;51.36
68654;BME280;55636;51.108;13.622;2023-05-19T04:58:31;101242.06;;;9.53;51.60
68654;BME280;55636;51.108;13.622;2023-05-19T04:59:34;101239.91;;;9.56;51.33
68654;BME280;55636;51.108;13.622;2023-05-19T05:00:40;101245.19;;;9.57;51.40
68654;BME280;55636;51.108;13.622;2023-05-19T05:01:43;101247.72;;;9.59;51.52
68654;BME280;55636;51.108;13.622;2023-05-19T05:02:47;101248.34;;;9.61;51.33
68654;BME280;55636;51.108;13.622;2023-05-19T05:03:54;101245.34;;;9.62;51.51
68654;BME280;55636;51.108;13.622;2023-05-19T05:04:56;101244.03;;;9.65;51.54
68654;BME280;55636;51.108;13.622;2023-05-19T05:05:59;101249.06;;;9.68;51.30
68654;BME280;55636;51.108;13.622;2023-05-19T05:07:01;101245.25;;;9.69;51.40
68654;BME280;55636;51.108;13.622;2023-05-19T05:08:04;101252.22;;;9.71;51.56
68654;BME280;55636;51.108;13.622;2023-05-19T05:09:15;101249.84;;;9.75;51.44
68654;BME280;55636;51.108;13.622;2023-05-19T05:10:18;101248.78;;;9.76;51.61
68654;BME280;55636;51.108;13.622;2023-05-19T05:11:21;101250.22;;;9.79;51.44
68654;BME280;55636;51.108;13.622;2023-05-19T05:12:23;101244.22;;;9.82;51.42
68654;BME280;55636;51.108;13.622;2023-05-19T05:13:26;101249.50;;;9.83;51.44
68654;BME280;55636;51.108;13.622;2023-05-19T05:14:29;101250.94;;;9.86;51.26
68654;BME280;55636;51.108;13.622;2023-05-19T05:15:32;101249.06;;;9.86;51.22
68654;BME280;55636;51.108;13.622;2023-05-19T05:16:36;101249.66;;;9.88;50.98
68654;BME280;55636;51.108;13.622;2023-05-19T05:17:40;101237.28;;;9.91;51.17
68654;BME280;55636;51.108;13.622;2023-05-19T05:18:43;101235.97;;;9.94;50.96
68654;BME280;55636;51.108;13.622;2023-05-19T05:19:46;101235.53;;;9.97;50.95
68654;BME280;55636;51.108;13.622;2023-05-19T05:20:49;101233.34;;;9.99;51.08
68654;BME280;55636;51.108;13.622;2023-05-19T05:21:53;101227.59;;;10.00;51.08
68654;BME280;55636;51.108;13.622;2023-05-19T05:22:57;101237.31;;;10.03;51.09
68654;BME280;55636;51.108;13.622;2023-05-19T05:24:00;101236.88;;;10.06;50.93
68654;BME280;55636;51.108;13.622;2023-05-19T05:25:06;101240.22;;;10.08;50.99
68654;BME280;55636;51.108;13.622;2023-05-19T05:26:16;101237.84;;;10.12;51.02
68654;BME280;55636;51.108;13.622;2023-05-19T05:27:22;101241.22;;;10.14;50.86
68654;BME280;55636;51.108;13.622;2023-05-19T05:28:24;101234.41;;;10.16;51.05
68654;BME280;55636;51.108;13.622;2023-05-19T05:29:27;101245.81;;;10.20;50.76
68654;BME280;55636;51.108;13.622;2023-05-19T05:30:32;101243.66;;;10.22;50.82
68654;BME280;55636;51.108;13.622;2023-05-19T05:31:35;101237.66;;;10.25;50.71
68654;BME280;55636;51.108;13.622;2023-05-19T05:32:39;101240.78;;;10.29;50.49
68654;BME280;55636;51.108;13.622;2023-05-19T05:33:49;101240.56;;;10.30;50.67
68654;BME280;55636;51.108;13.622;2023-05-19T05:34:57;101236.22;;;10.34;50.56
68654;BME280;55636;51.108;13.622;2023-05-19T05:36:00;101237.69;;;10.37;50.39
68654;BME280;55636;51.108;13.622;2023-05-19T05:37:03;101244.44;;;10.41;50.52
68654;BME280;55636;51.108;13.622;2023-05-19T05:38:05;101245.00;;;10.43;50.60
68654;BME280;55636;51.108;13.622;2023-05-19T05:39:08;101250.91;;;10.47;50.42
68654;BME280;55636;51.108;13.622;2023-05-19T05:40:13;101251.53;;;10.49;50.50
68654;BME280;55636;51.108;13.622;2023-05-19T05:41:15;101247.44;;;10.51;50.30
68654;BME280;55636;51.108;13.622;2023-05-19T05:42:19;101254.19;;;10.56;50.28
68654;BME280;55636;51.108;13.622;2023-05-19T05:43:22;101254.50;;;10.59;50.32
68654;BME280;55636;51.108;13.622;2023-05-19T05:44:30;101255.75;;;10.63;50.28
68654;BME280;55636;51.108;13.622;2023-05-19T05:45:32;101258.25;;;10.65;50.21